createdAt,value
2018-11-29T18:28:40.612Z,5.10
2018-11-29T18:29:18.656Z,5.35
2018-11-29T18:29:57.074Z,5.67
2018-11-29T18:30:35.562Z,6.10
2018-11-29T18:31:15.237Z,5.65
2018-11-29T18:31:54.131Z,4.90
2018-11-29T18:32:33.198Z,5.22
2018-11-29T18:33:12.090Z,5.35
2018-11-29T18:33:51.773Z,4.80
2018-11-29T18:34:34.398Z,5.50
2018-11-29T18:35:13.955Z,4.33
2018-11-29T18:35:57.969Z,5.20
2018-11-29T18:36:36.476Z,4.80
2018-11-29T18:37:14.660Z,4.92
2018-11-29T18:37:56.467Z,5.20
2018-11-29T18:38:34.757Z,5.12
2018-11-29T18:39:14.286Z,5.45
2018-11-29T18:39:53.002Z,5.33
2018-11-29T18:40:32.542Z,4.53
2018-11-29T18:41:10.812Z,5.40
2018-11-29T18:41:49.371Z,5.22
2018-11-29T18:42:28.447Z,5.17
2018-11-29T18:43:06.938Z,5.55
2018-11-29T18:43:45.354Z,5.00
2018-11-29T18:44:23.249Z,5.47
2018-11-29T18:45:01.645Z,4.95
2018-11-29T18:45:40.231Z,5.00
2018-11-29T18:46:18.508Z,5.85
2018-11-29T18:46:56.985Z,5.78
2018-11-29T18:47:35.417Z,4.05
2018-11-29T18:48:14.017Z,4.75
2018-11-29T18:48:54.557Z,5.40
2018-11-29T18:49:33.480Z,5.05
2018-11-29T18:50:15.320Z,4.95
2018-11-29T18:50:54.908Z,4.62
2018-11-29T18:51:33.045Z,4.55
2018-11-29T18:52:11.429Z,5.00
2018-11-29T18:52:49.924Z,4.67
2018-11-29T18:53:28.361Z,4.30
2018-11-29T18:54:06.625Z,4.40
2018-11-29T18:54:45.014Z,4.70
2018-11-29T18:55:25.783Z,4.95
2018-11-29T18:56:04.186Z,4.75
2018-11-29T18:56:42.679Z,4.90
2018-11-29T18:57:20.867Z,4.65
2018-11-29T18:58:00.093Z,5.10
2018-11-29T18:58:38.551Z,4.83
2018-11-29T18:59:16.875Z,5.25
2018-11-29T18:59:55.143Z,5.08
2018-11-29T19:00:37.336Z,4.50
2018-11-29T19:01:15.492Z,4.95
2018-11-29T19:01:53.754Z,4.70
2018-11-29T19:02:32.239Z,4.67
2018-11-29T19:03:11.208Z,4.90
2018-11-29T19:03:49.265Z,3.98
2018-11-29T19:04:27.557Z,5.00
2018-11-29T19:05:06.594Z,5.03
2018-11-29T19:05:46.401Z,4.62
2018-11-29T19:06:25.080Z,4.65
2018-11-29T19:07:04.076Z,4.85
2018-11-29T19:07:43.563Z,5.30
2018-11-29T19:08:22.131Z,5.70
2018-11-29T19:09:01.581Z,4.15
2018-11-29T19:09:39.782Z,4.95
2018-11-29T19:10:18.431Z,4.78
2018-11-29T19:10:57.570Z,5.20
2018-11-29T19:11:35.944Z,4.47
2018-11-29T19:12:15.145Z,4.47
2018-11-29T19:13:10.056Z,4.83
2018-11-29T19:13:48.386Z,5.35
2018-11-29T19:14:26.939Z,4.78
2018-11-29T19:15:05.714Z,6.67
2018-11-29T19:15:44.182Z,5.05
2018-11-29T19:16:23.055Z,5.30
2018-11-29T19:17:03.212Z,5.50
2018-11-29T19:17:42.907Z,5.10
2018-11-29T19:18:21.549Z,4.80
2018-11-29T19:19:01.624Z,5.78
2018-11-29T19:19:40.846Z,5.60
2018-11-29T19:20:20.693Z,5.20
2018-11-29T19:21:00.141Z,5.65
2018-11-29T19:21:38.744Z,5.03
2018-11-29T19:22:17.228Z,5.30
2018-11-29T19:22:55.611Z,4.65
2018-11-29T19:23:33.843Z,5.22
2018-11-29T19:24:12.374Z,6.08
2018-11-29T19:24:53.715Z,5.20
2018-11-29T19:25:32.131Z,5.33
2018-11-29T19:26:11.306Z,5.22
2018-11-29T19:26:49.551Z,5.42
2018-11-29T19:27:28.225Z,5.58
2018-11-29T19:28:08.771Z,4.95
2018-11-29T19:28:50.819Z,5.97
2018-11-29T19:29:31.042Z,5.72
2018-11-29T19:30:13.893Z,5.60
2018-11-29T19:30:51.985Z,5.58
2018-11-29T19:31:30.576Z,6.05
2018-11-29T19:32:09.361Z,5.95
2018-11-29T19:32:48.353Z,5.97
2018-11-29T19:33:29.007Z,5.65
2018-11-29T19:34:06.951Z,5.55
2018-11-29T19:34:46.083Z,5.62
2018-11-29T19:35:24.538Z,5.30
2018-11-29T19:36:02.710Z,5.78
2018-11-29T19:36:41.884Z,5.33
2018-11-29T19:37:21.062Z,5.62
2018-11-29T19:37:59.473Z,6.83
2018-11-29T19:38:38.419Z,5.63
2018-11-29T19:39:17.515Z,6.40
2018-11-29T19:39:56.609Z,5.83
2018-11-29T19:40:34.574Z,6.28
2018-11-29T19:41:12.953Z,6.12
2018-11-29T19:41:51.110Z,5.97
2018-11-29T19:42:30.286Z,6.72
2018-11-29T19:43:11.176Z,6.58
2018-11-29T19:43:50.926Z,6.65
2018-11-29T19:44:29.222Z,6.05
2018-11-29T19:45:09.066Z,6.00
2018-11-29T19:45:47.623Z,6.22
2018-11-29T19:46:26.274Z,7.25
2018-11-29T19:47:04.686Z,6.37
2018-11-29T19:47:43.475Z,5.60
2018-11-29T19:48:22.163Z,6.25
2018-11-29T19:49:00.861Z,6.12
2018-11-29T19:49:39.398Z,6.83
2018-11-29T19:50:19.604Z,6.30
2018-11-29T19:50:57.809Z,6.75
2018-11-29T19:51:36.674Z,5.95
2018-11-29T19:52:15.342Z,6.30
2018-11-29T19:52:55.934Z,5.87
2018-11-29T19:53:34.148Z,6.25
2018-11-29T19:54:12.600Z,6.30
2018-11-29T19:54:51.803Z,6.45
2018-11-29T19:55:32.854Z,5.95
2018-11-29T19:56:11.118Z,5.87
2018-11-29T19:56:50.416Z,5.83
2018-11-29T19:57:28.860Z,6.80
2018-11-29T19:58:07.000Z,6.53
2018-11-29T19:58:49.428Z,6.60
2018-11-29T19:59:28.577Z,5.92
2018-11-29T20:00:07.118Z,5.47
2018-11-29T20:00:46.282Z,5.62
2018-11-29T20:01:25.371Z,6.40
2018-11-29T20:02:03.937Z,5.00
2018-11-29T20:02:42.897Z,6.03
2018-11-29T20:03:23.653Z,5.60
2018-11-29T20:04:01.809Z,5.80
2018-11-29T20:04:40.967Z,6.10
2018-11-29T20:05:19.365Z,6.12
2018-11-29T20:05:57.574Z,5.83
2018-11-29T20:06:35.857Z,5.80
2018-11-29T20:07:16.129Z,6.00
2018-11-29T20:07:54.365Z,6.08
2018-11-29T20:08:33.843Z,5.70
2018-11-29T20:09:12.471Z,6.60
2018-11-29T20:09:50.431Z,6.25
2018-11-29T20:10:28.733Z,5.58
2018-11-29T20:11:06.986Z,5.80
2018-11-29T20:11:45.162Z,6.28
2018-11-29T20:12:23.399Z,5.60
2018-11-29T20:13:07.908Z,6.42
2018-11-29T20:13:47.215Z,5.35
2018-11-29T20:14:26.617Z,6.17
2018-11-29T20:15:04.917Z,5.70
2018-11-29T20:15:44.247Z,6.08
2018-11-29T20:16:22.990Z,6.20
2018-11-29T20:17:01.619Z,6.12
2018-11-29T20:17:40.043Z,6.00
2018-11-29T20:18:19.380Z,5.12
2018-11-29T20:18:57.414Z,5.95
2018-11-29T20:19:35.790Z,5.30
2018-11-29T20:20:15.759Z,5.50
2018-11-29T20:20:53.942Z,5.80
2018-11-29T20:21:32.152Z,5.33
2018-11-29T20:22:11.557Z,5.65
2018-11-29T20:22:49.906Z,5.53
2018-11-29T20:23:28.492Z,5.60
2018-11-29T20:24:07.857Z,6.15
2018-11-29T20:24:46.990Z,6.20
2018-11-29T20:25:27.213Z,6.05
2018-11-29T20:26:05.677Z,6.47
2018-11-29T20:26:44.755Z,5.12
2018-11-29T20:27:23.153Z,5.95
2018-11-29T20:28:01.454Z,4.92
2018-11-29T20:28:39.613Z,5.93
2018-11-29T20:29:18.310Z,6.40
2018-11-29T20:29:56.559Z,5.08
2018-11-29T20:30:35.588Z,5.50
2018-11-29T20:31:13.795Z,5.00
2018-11-29T20:31:52.379Z,5.92
2018-11-29T20:32:31.341Z,5.80
2018-11-29T20:33:10.681Z,5.65
2018-11-29T20:33:50.330Z,5.35
2018-11-29T20:34:28.854Z,4.97
2018-11-29T20:35:09.240Z,4.97
2018-11-29T20:35:47.909Z,5.97
2018-11-29T20:36:26.393Z,5.95
2018-11-29T20:37:05.978Z,5.20
2018-11-29T20:37:44.364Z,5.00
2018-11-29T20:38:22.914Z,5.37
2018-11-29T20:39:01.282Z,5.67
2018-11-29T20:39:39.737Z,5.20
2018-11-29T20:40:21.563Z,5.87
2018-11-29T20:41:01.274Z,5.15
2018-11-29T20:41:40.222Z,5.70
2018-11-29T20:42:18.173Z,6.10
2018-11-29T20:42:59.067Z,5.50
2018-11-29T20:43:38.184Z,5.12
2018-11-29T20:44:17.478Z,5.40
2018-11-29T20:44:56.003Z,5.85
2018-11-29T20:45:39.466Z,5.62
2018-11-29T20:46:18.713Z,4.83
2018-11-29T20:46:57.824Z,4.85
2018-11-29T20:47:36.817Z,5.22
2018-11-29T20:48:19.913Z,5.37
2018-11-29T20:48:58.899Z,5.17
2018-11-29T20:49:38.596Z,5.30
2018-11-29T20:50:18.221Z,5.42
2018-11-29T20:50:58.649Z,5.05
2018-11-29T20:51:36.907Z,4.85
2018-11-29T20:52:15.070Z,5.40
2018-11-29T20:52:54.126Z,5.60
2018-11-29T20:53:39.733Z,5.72
2018-11-29T20:54:18.559Z,5.20
2018-11-29T20:54:58.131Z,5.22
2018-11-29T20:55:36.905Z,5.80
2018-11-29T20:56:16.326Z,5.10
2018-11-29T20:57:00.003Z,5.08
2018-11-29T20:57:39.021Z,5.78
2018-11-29T20:58:17.677Z,6.30
2018-11-29T20:58:55.869Z,5.90
2018-11-29T20:59:35.088Z,5.10
2018-11-29T21:00:18.231Z,6.30
2018-11-29T21:00:56.585Z,5.67
2018-11-29T21:01:35.690Z,5.78
2018-11-29T21:02:14.735Z,5.55
2018-11-29T21:02:53.349Z,5.83
2018-11-29T21:03:31.459Z,5.28
2018-11-29T21:04:10.929Z,5.20
2018-11-29T21:04:49.018Z,5.53
2018-11-29T21:05:29.849Z,5.30
2018-11-29T21:06:08.821Z,4.70
2018-11-29T21:06:46.914Z,5.55
2018-11-29T21:07:26.027Z,4.78
2018-11-29T21:08:05.317Z,5.30
2018-11-29T21:08:44.914Z,4.90
2018-11-29T21:09:23.354Z,5.83
2018-11-29T21:10:03.129Z,5.15
2018-11-29T21:10:44.825Z,5.00
2018-11-29T21:11:22.970Z,5.60
2018-11-29T21:12:01.324Z,4.90
2018-11-29T21:12:39.974Z,5.03
2018-11-29T21:13:18.228Z,4.90
2018-11-29T21:13:57.623Z,6.08
2018-11-29T21:14:36.089Z,6.00
2018-11-29T21:15:14.601Z,5.03
2018-11-29T21:15:53.261Z,5.60
2018-11-29T21:16:31.202Z,5.45
2018-11-29T21:17:10.120Z,5.20
2018-11-29T21:17:49.137Z,5.25
2018-11-29T21:18:27.640Z,5.10
2018-11-29T21:19:06.009Z,5.35
2018-11-29T21:19:46.047Z,5.25
2018-11-29T21:20:24.663Z,5.80
2018-11-29T21:21:05.057Z,5.78
2018-11-29T21:21:44.709Z,5.30
2018-11-29T21:22:24.141Z,4.80
2018-11-29T21:23:03.615Z,5.00
2018-11-29T21:23:42.085Z,4.92
2018-11-29T21:24:20.282Z,5.10
2018-11-29T21:24:58.444Z,4.90
2018-11-29T21:25:38.165Z,5.28
2018-11-29T21:26:16.141Z,4.92
2018-11-29T21:26:54.300Z,5.35
2018-11-29T21:27:32.440Z,5.35
2018-11-29T21:28:11.587Z,4.67
2018-11-29T21:28:50.608Z,5.05
2018-11-29T21:29:29.031Z,4.62
2018-11-29T21:30:07.999Z,5.40
2018-11-29T21:30:46.205Z,4.85
2018-11-29T21:31:25.580Z,4.80
2018-11-29T21:32:04.054Z,4.97
2018-11-29T21:32:42.143Z,4.40
2018-11-29T21:33:20.181Z,4.75
2018-11-29T21:33:58.291Z,5.25
2018-11-29T21:34:37.710Z,5.10
2018-11-29T21:35:17.183Z,5.15
2018-11-29T21:35:56.939Z,4.87
2018-11-29T21:36:35.175Z,4.80
2018-11-29T21:37:15.730Z,5.55
2018-11-29T21:37:57.060Z,5.15
2018-11-29T21:38:35.713Z,4.53
2018-11-29T21:39:13.905Z,4.83
2018-11-29T21:39:51.940Z,4.78
2018-11-29T21:40:33.621Z,5.25
2018-11-29T21:41:12.113Z,4.72
2018-11-29T21:41:50.465Z,4.95
2018-11-29T21:42:28.521Z,5.60
2018-11-29T21:43:07.135Z,4.45
2018-11-29T21:43:51.768Z,5.05
2018-11-29T21:44:29.983Z,5.00
2018-11-29T21:45:08.243Z,4.55
2018-11-29T21:45:46.591Z,5.10
2018-11-29T21:46:25.021Z,5.00
2018-11-29T21:47:03.391Z,4.62
2018-11-29T21:47:41.729Z,5.10
2018-11-29T21:48:20.219Z,5.87
2018-11-29T21:48:58.625Z,4.85
2018-11-29T21:49:36.761Z,4.30
2018-11-29T21:50:15.754Z,4.58
2018-11-29T21:50:55.842Z,5.70
2018-11-29T21:51:34.091Z,5.15
2018-11-29T21:52:14.193Z,4.70
2018-11-29T21:52:53.778Z,4.30
2018-11-29T21:53:31.929Z,4.95
2018-11-29T21:54:10.064Z,4.50
2018-11-29T21:54:48.568Z,4.90
2018-11-29T21:55:27.291Z,5.22
2018-11-29T21:56:05.977Z,5.37
2018-11-29T21:56:44.307Z,4.42
2018-11-29T21:57:22.233Z,5.78
2018-11-29T21:58:00.686Z,4.97
2018-11-29T21:58:38.907Z,4.20
2018-11-29T21:59:17.440Z,4.33
2018-11-29T21:59:57.154Z,4.47
2018-11-29T22:00:36.085Z,4.13
2018-11-29T22:01:15.146Z,4.65
2018-11-29T22:01:53.355Z,4.08
2018-11-29T22:02:33.004Z,4.80
2018-11-29T22:03:11.569Z,4.62
2018-11-29T22:03:49.821Z,4.12
2018-11-29T22:04:28.867Z,4.47
2018-11-29T22:05:07.401Z,4.47
2018-11-29T22:05:45.823Z,4.55
2018-11-29T22:06:25.297Z,3.75
2018-11-29T22:07:05.099Z,4.40
2018-11-29T22:07:43.391Z,4.30
2018-11-29T22:08:21.690Z,4.42
2018-11-29T22:08:59.742Z,4.40
2018-11-29T22:09:40.419Z,4.83
2018-11-29T22:10:18.631Z,4.30
2018-11-29T22:10:56.920Z,4.40
2018-11-29T22:11:35.240Z,4.22
2018-11-29T22:12:13.517Z,4.28
2018-11-29T22:12:52.459Z,4.50
2018-11-29T22:13:30.823Z,4.40
2018-11-29T22:14:09.384Z,4.40
2018-11-29T22:14:47.684Z,4.33
2018-11-29T22:15:25.871Z,4.40
2018-11-29T22:16:04.352Z,3.95
2018-11-29T22:16:42.538Z,4.63
2018-11-29T22:17:20.696Z,4.00
2018-11-29T22:18:30.987Z,4.40
2018-11-29T22:19:09.379Z,4.12
2018-11-29T22:19:47.789Z,3.65
2018-11-29T22:20:25.887Z,4.40
2018-11-29T22:21:07.157Z,3.95
2018-11-29T22:21:49.281Z,4.03
2018-11-29T22:22:28.772Z,3.87
2018-11-29T22:23:07.249Z,4.22
2018-11-29T22:23:46.053Z,4.62
2018-11-29T22:24:24.370Z,4.15
2018-11-29T22:25:02.896Z,3.90
2018-11-29T22:25:41.089Z,4.42
2018-11-29T22:26:20.114Z,4.33
2018-11-29T22:27:04.748Z,3.70
2018-11-29T22:27:43.307Z,4.25
2018-11-29T22:28:21.541Z,4.35
2018-11-29T22:29:00.770Z,4.25
2018-11-29T22:29:38.799Z,4.00
2018-11-29T22:30:17.398Z,3.90
2018-11-29T22:30:56.661Z,4.37
2018-11-29T22:31:36.154Z,4.30
2018-11-29T22:32:14.528Z,4.20
2018-11-29T22:32:52.859Z,4.00
2018-11-29T22:33:31.474Z,4.50
2018-11-29T22:34:10.127Z,4.20
2018-11-29T22:34:48.591Z,4.03
2018-11-29T22:35:27.934Z,4.03
2018-11-29T22:36:07.067Z,4.05
2018-11-29T22:36:45.425Z,3.35
2018-11-29T22:37:23.639Z,3.55
2018-11-29T22:38:02.913Z,4.17
2018-11-29T22:38:44.390Z,4.53
2018-11-29T22:39:20.796Z,3.90
2018-11-29T22:39:59.186Z,4.15
2018-11-29T22:40:37.425Z,3.93
2018-11-29T22:41:17.090Z,3.50
2018-11-29T22:41:56.618Z,4.10
2018-11-29T22:42:35.835Z,3.90
2018-11-29T22:43:14.057Z,3.95
2018-11-29T22:43:52.223Z,3.40
2018-11-29T22:44:30.553Z,4.03
2018-11-29T22:45:09.574Z,4.00
2018-11-29T22:45:50.385Z,4.20
2018-11-29T22:46:29.945Z,3.62
2018-11-29T22:47:08.414Z,4.10
2018-11-29T22:47:47.446Z,3.70
2018-11-29T22:48:25.844Z,3.58
2018-11-29T22:49:05.414Z,4.87
2018-11-29T22:49:43.878Z,3.67
2018-11-29T22:50:22.329Z,3.85
2018-11-29T22:51:00.782Z,4.50
2018-11-29T22:51:38.991Z,3.58
2018-11-29T22:52:17.629Z,4.08
2018-11-29T22:52:55.962Z,3.58
2018-11-29T22:53:34.491Z,4.00
2018-11-29T22:54:12.928Z,4.20
2018-11-29T22:54:51.478Z,4.25
2018-11-29T22:55:30.682Z,3.40
2018-11-29T22:56:09.841Z,4.00
2018-11-29T22:56:48.476Z,4.15
2018-11-29T22:57:29.459Z,3.83
2018-11-29T22:58:08.633Z,3.85
2018-11-29T22:58:46.918Z,3.45
2018-11-29T22:59:25.111Z,3.67
2018-11-29T23:00:03.574Z,3.60
2018-11-29T23:00:47.197Z,3.67
2018-11-29T23:01:28.180Z,3.33
2018-11-29T23:02:06.529Z,3.85
2018-11-29T23:02:45.632Z,3.50
2018-11-29T23:03:24.309Z,4.20
2018-11-29T23:04:03.052Z,3.65
2018-11-29T23:04:41.440Z,3.90
2018-11-29T23:05:20.811Z,3.80
2018-11-29T23:05:59.322Z,3.80
2018-11-29T23:06:37.604Z,3.80
2018-11-29T23:07:15.766Z,3.55
2018-11-29T23:07:55.064Z,3.50
2018-11-29T23:08:34.291Z,3.27
2018-11-29T23:09:13.771Z,3.75
2018-11-29T23:09:51.758Z,3.33
2018-11-29T23:10:30.146Z,3.50
2018-11-29T23:11:09.484Z,3.72
2018-11-29T23:11:47.551Z,3.92
2018-11-29T23:12:26.856Z,4.22
2018-11-29T23:13:09.385Z,3.47
2018-11-29T23:13:47.437Z,3.83
2018-11-29T23:14:25.716Z,3.50
2018-11-29T23:15:04.981Z,3.37
2018-11-29T23:15:45.045Z,3.40
2018-11-29T23:16:23.123Z,3.80
2018-11-29T23:17:02.296Z,3.12
2018-11-29T23:17:40.439Z,4.05
2018-11-29T23:18:18.773Z,3.10
2018-11-29T23:18:56.729Z,3.40
2018-11-29T23:19:36.530Z,3.80
2018-11-29T23:20:16.717Z,3.55
2018-11-29T23:20:55.989Z,4.25
2018-11-29T23:21:35.321Z,3.92
2018-11-29T23:22:14.949Z,3.35
2018-11-29T23:22:53.718Z,3.58
2018-11-29T23:23:31.915Z,3.02
2018-11-29T23:24:10.378Z,3.50
2018-11-29T23:24:48.575Z,3.27
2018-11-29T23:25:27.022Z,3.00
2018-11-29T23:26:05.975Z,3.92
2018-11-29T23:26:48.182Z,4.00
2018-11-29T23:27:26.597Z,3.25
2018-11-29T23:28:04.758Z,3.60
2018-11-29T23:28:43.275Z,3.25
2018-11-29T23:29:21.765Z,3.00
2018-11-29T23:30:01.248Z,3.67
2018-11-29T23:30:40.783Z,3.60
2018-11-29T23:31:18.843Z,3.15
2018-11-29T23:31:57.131Z,2.92
2018-11-29T23:32:35.421Z,3.60
2018-11-29T23:33:13.573Z,3.92
2018-11-29T23:33:52.518Z,3.42
2018-11-29T23:34:31.137Z,2.98
2018-11-29T23:35:09.303Z,2.87
2018-11-29T23:35:47.850Z,2.90
2018-11-29T23:36:26.235Z,3.58
2018-11-29T23:37:04.841Z,3.10
2018-11-29T23:37:43.014Z,3.77
2018-11-29T23:38:21.536Z,3.10
2018-11-29T23:39:00.039Z,3.80
2018-11-29T23:39:37.834Z,2.90
2018-11-29T23:40:18.207Z,3.25
2018-11-29T23:40:56.683Z,3.22
2018-11-29T23:41:35.155Z,3.42
2018-11-29T23:42:13.323Z,3.52
2018-11-29T23:42:52.394Z,2.92
2018-11-29T23:43:30.750Z,3.12
2018-11-29T23:44:09.554Z,3.70
2018-11-29T23:44:48.543Z,3.25
2018-11-29T23:45:28.150Z,3.17
2018-11-29T23:46:07.272Z,3.35
2018-11-29T23:46:45.634Z,4.50
2018-11-29T23:47:25.958Z,3.72
2018-11-29T23:48:05.160Z,3.95
2018-11-29T23:48:43.297Z,3.30
2018-11-29T23:49:22.285Z,3.50
2018-11-29T23:50:00.919Z,3.65
2018-11-29T23:50:39.870Z,3.90
2018-11-29T23:51:19.607Z,3.47
2018-11-29T23:51:59.256Z,3.47
2018-11-29T23:52:38.243Z,3.27
2018-11-29T23:53:17.069Z,3.95
2018-11-29T23:53:55.670Z,4.33
2018-11-29T23:54:36.811Z,3.50
2018-11-29T23:55:17.603Z,3.90
2018-11-29T23:56:03.482Z,3.67
2018-11-29T23:56:41.583Z,3.33
2018-11-29T23:57:19.818Z,3.70
2018-11-29T23:57:58.410Z,3.80
2018-11-29T23:58:36.825Z,3.45
2018-11-29T23:59:16.717Z,3.77
2018-11-29T23:59:56.520Z,3.60
